Jette Viking Hv77 — 5QEP — position and weather

sailwx.info

Track history (hours):
 
Tides and Currents Weather Stations Pressure Air Temp Water Temp Dewpoint Dewpoint Depression Visibility Wind Speed Wind Dir Waves Ship Positions

Jette Viking Hv77

Last reported at 2015-May-26 02:13 UTC. Time now 2015-May-26 05:48 UTC.
Position N 57°28' E 010°51'.

Length 16 m.

Type: Fishing. MMSI: 220046000.

Date/timePositionNaut miles runAvg speedWind from/ knotsBaromVisibWave heightAir tempDewpointWater temp
2015-May-26 02:13N 57°28' E 010°51'2 2.5
2015-May-26 01:22N 57°29' E 010°55'2 2.6
2015-May-26 00:33N 57°29' E 010°59'3 2.6
2015-May-25 23:34N 57°30' E 011°03'1 0.7
2015-May-25 22:34N 57°30' E 011°05'3 2.5
2015-May-25 21:33N 57°30' E 011°00'3 2.5
2015-May-25 20:33N 57°29' E 010°56'3 2.5
2015-May-25 19:32N 57°28' E 010°51'2 0.1
2015-May-25 02:22N 57°29' E 010°53'2 2.5
2015-May-25 01:33N 57°30' E 010°57'3 2.5
2015-May-25 00:32N 57°31' E 011°01'2 2.5
2015-May-24 23:34N 57°32' E 011°05'2 1.7
2015-May-24 22:34N 57°33' E 011°08'3 2.6
2015-May-24 21:34N 57°32' E 011°04'3 2.6
2015-May-24 20:34N 57°30' E 010°60'3 2.6
2015-May-24 19:33N 57°29' E 010°56'4 3.9
2015-May-24 18:34N 57°28' E 010°49'7 6.7
2015-May-24 17:33N 57°29' E 010°36'3 3.1
2015-May-24 16:30N 57°30' E 010°30'0 0.0
2015-May-24 07:15N 57°30' E 010°30'0 0.0
2015-May-24 06:16N 57°30' E 010°30'0 0.0
2015-May-23 22:32N 57°30' E 010°30'0 0.0
2015-May-23 20:31N 57°30' E 010°30'0 0.0
2015-May-23 19:33N 57°30' E 010°30'0 0.0
2015-May-23 18:32N 57°30' E 010°30'0 0.0
2015-May-23 17:33N 57°30' E 010°30'0 0.0
2015-May-23 16:34N 57°30' E 010°30'0 0.0
2015-May-23 15:32N 57°30' E 010°30'0 0.0
2015-May-23 13:14N 57°30' E 010°30'0 0.0
2015-May-23 12:11N 57°30' E 010°30'  
2015-May-21 03:24N 57°49' E 010°11'7 4.1
2015-May-21 01:34N 57°48' E 010°24'9 7.2
2015-May-21 00:16N 57°46' E 010°41'6 8.3
2015-May-20 23:34N 57°40' E 010°46'8 8.3
2015-May-20 22:34N 57°33' E 010°52'6 6.1
2015-May-20 21:33N 57°27' E 010°56'6 2.4
2015-May-20 19:08N 57°23' E 010°49'10 6.2
2015-May-20 17:30N 57°29' E 010°34'11 0.7
2015-May-20 00:12N 57°26' E 010°55'2 2.5
2015-May-19 23:23N 57°27' E 010°58'0 0.4
2015-May-19 22:33N 57°27' E 010°58'3 2.5
2015-May-19 21:33N 57°26' E 010°54'3 2.6
2015-May-19 20:31N 57°24' E 010°51'  
2015-May-16 03:18N 57°30' E 010°30'  
Track history (hours):
 
Tides and Currents Weather Stations Pressure Air Temp Water Temp Dewpoint Dewpoint Depression Visibility Wind Speed Wind Dir Waves Ship Positions

Jette Viking Hv77

Last reported at 2015-May-26 02:13 UTC. Time now 2015-May-26 05:48 UTC.
Position N 57°28' E 010°51'.

Length 16 m.

Type: Fishing. MMSI: 220046000.

Date/timePositionNaut miles runAvg speedWind from/ knotsBaromVisibWave heightAir tempDewpointWater temp
2015-May-26 02:13N 57°28' E 010°51'2 2.5
2015-May-26 01:22N 57°29' E 010°55'2 2.6
2015-May-26 00:33N 57°29' E 010°59'3 2.6
2015-May-25 23:34N 57°30' E 011°03'1 0.7
2015-May-25 22:34N 57°30' E 011°05'3 2.5
2015-May-25 21:33N 57°30' E 011°00'3 2.5
2015-May-25 20:33N 57°29' E 010°56'3 2.5
2015-May-25 19:32N 57°28' E 010°51'2 0.1
2015-May-25 02:22N 57°29' E 010°53'2 2.5
2015-May-25 01:33N 57°30' E 010°57'3 2.5
2015-May-25 00:32N 57°31' E 011°01'2 2.5
2015-May-24 23:34N 57°32' E 011°05'2 1.7
2015-May-24 22:34N 57°33' E 011°08'3 2.6
2015-May-24 21:34N 57°32' E 011°04'3 2.6
2015-May-24 20:34N 57°30' E 010°60'3 2.6
2015-May-24 19:33N 57°29' E 010°56'4 3.9
2015-May-24 18:34N 57°28' E 010°49'7 6.7
2015-May-24 17:33N 57°29' E 010°36'3 3.1
2015-May-24 16:30N 57°30' E 010°30'0 0.0
2015-May-24 07:15N 57°30' E 010°30'0 0.0
2015-May-24 06:16N 57°30' E 010°30'0 0.0
2015-May-23 22:32N 57°30' E 010°30'0 0.0
2015-May-23 20:31N 57°30' E 010°30'0 0.0
2015-May-23 19:33N 57°30' E 010°30'0 0.0
2015-May-23 18:32N 57°30' E 010°30'0 0.0
2015-May-23 17:33N 57°30' E 010°30'0 0.0
2015-May-23 16:34N 57°30' E 010°30'0 0.0
2015-May-23 15:32N 57°30' E 010°30'0 0.0
2015-May-23 13:14N 57°30' E 010°30'0 0.0
2015-May-23 12:11N 57°30' E 010°30'  
2015-May-21 03:24N 57°49' E 010°11'7 4.1
2015-May-21 01:34N 57°48' E 010°24'9 7.2
2015-May-21 00:16N 57°46' E 010°41'6 8.3
2015-May-20 23:34N 57°40' E 010°46'8 8.3
2015-May-20 22:34N 57°33' E 010°52'6 6.1
2015-May-20 21:33N 57°27' E 010°56'6 2.4
2015-May-20 19:08N 57°23' E 010°49'10 6.2
2015-May-20 17:30N 57°29' E 010°34'11 0.7
2015-May-20 00:12N 57°26' E 010°55'2 2.5
2015-May-19 23:23N 57°27' E 010°58'0 0.4
2015-May-19 22:33N 57°27' E 010°58'3 2.5
2015-May-19 21:33N 57°26' E 010°54'3 2.6
2015-May-19 20:31N 57°24' E 010°51'  
2015-May-16 03:18N 57°30' E 010°30'  

Dump ship's entire track history